Time;durP1;ratioP1;P1;durP2;ratioP2;P2;SDS_P1;SDS_P2;PMS_P1;PMS_P2;Temp;Humidity;BMP_temperature;BMP_pressure;BME280_temperature;BME280_humidity;BME280_pressure;Samples;Min_cycle;Max_cycle;Signal;HPM_P1;HPM_P2
2021/09/05 00:01:59;;;;;;;9.77;6.07;;;;;;;15.17;84.82;96422.13;4975559;28;20207;-73
2021/09/05 00:04:26;;;;;;;11.18;7.60;;;;;;;15.20;85.02;96419.88;4975795;28;20235;-73
2021/09/05 00:06:52;;;;;;;11.80;7.18;;;;;;;15.16;84.65;96413.34;4974336;28;20590;-73
2021/09/05 00:09:19;;;;;;;11.07;6.70;;;;;;;15.13;84.02;96419.03;4975895;28;20203;-72
2021/09/05 00:11:46;;;;;;;14.95;8.00;;;;;;;15.40;84.01;96420.75;4975489;28;20218;-73
2021/09/05 00:14:13;;;;;;;10.10;7.07;;;;;;;15.13;85.20;96419.03;4975216;28;20199;-71
2021/09/05 00:16:39;;;;;;;10.93;6.03;;;;;;;15.06;83.72;96418.22;4974483;28;20241;-72
2021/09/05 00:19:06;;;;;;;9.68;6.35;;;;;;;15.06;83.35;96418.22;4974996;28;20199;-72
2021/09/05 00:21:32;;;;;;;12.00;7.00;;;;;;;15.07;83.43;96413.72;4975028;28;20211;-72
2021/09/05 00:23:59;;;;;;;9.68;6.10;;;;;;;15.04;83.73;96422.88;4976132;28;20202;-70
2021/09/05 00:26:25;;;;;;;10.85;6.95;;;;;;;15.15;84.18;96427.63;4974635;28;20223;-71
2021/09/05 00:28:53;;;;;;;10.85;6.53;;;;;;;15.28;84.24;96420.53;4975372;28;20213;-72
2021/09/05 00:31:20;;;;;;;10.00;6.82;;;;;;;15.31;84.02;96419.31;4978147;28;20222;-72
2021/09/05 00:33:47;;;;;;;13.40;6.45;;;;;;;15.22;83.33;96422.38;4978950;28;20223;-72
2021/09/05 00:36:13;;;;;;;12.55;6.90;;;;;;;15.00;83.55;96423.50;4977956;28;20215;-71
2021/09/05 00:38:40;;;;;;;9.15;6.28;;;;;;;14.81;84.09;96425.06;4978724;28;20209;-71
2021/09/05 00:41:06;;;;;;;11.90;6.95;;;;;;;14.94;83.68;96421.63;4978161;28;20199;-71
2021/09/05 00:43:33;;;;;;;9.38;6.18;;;;;;;14.98;83.72;96418.41;4978758;28;20211;-71
2021/09/05 00:46:03;;;;;;;10.07;6.65;;;;;;;15.15;83.14;96426.78;4977320;28;20223;-72
2021/09/05 00:48:30;;;;;;;9.43;6.38;;;;;;;14.97;83.42;96426.53;4978667;28;20214;-70
2021/09/05 00:50:56;;;;;;;12.43;7.10;;;;;;;14.90;83.82;96431.81;4978119;28;20203;-73
2021/09/05 00:53:23;;;;;;;11.35;6.72;;;;;;;14.77;84.49;96426.47;4978091;28;21277;-73
2021/09/05 00:55:49;;;;;;;10.48;6.45;;;;;;;14.82;84.74;96426.69;4978017;28;20553;-73
2021/09/05 00:58:17;;;;;;;10.27;6.65;;;;;;;14.82;83.66;96436.50;4978095;28;20204;-73
2021/09/05 01:00:43;;;;;;;9.50;6.10;;;;;;;14.57;83.90;96435.34;4978026;28;20218;-73
2021/09/05 01:03:11;;;;;;;11.30;6.80;;;;;;;14.59;86.24;96445.75;4978463;28;20200;-73
2021/09/05 01:05:37;;;;;;;11.00;7.05;;;;;;;14.63;86.17;96431.13;4978188;28;20203;-72
2021/09/05 01:08:05;;;;;;;11.00;6.72;;;;;;;14.79;85.56;96424.44;4977657;28;20204;-73
2021/09/05 01:10:31;;;;;;;12.18;7.07;;;;;;;14.72;84.25;96439.50;4977920;28;20301;-73
2021/09/05 01:12:58;;;;;;;10.65;6.90;;;;;;;14.83;83.62;96438.16;4977923;28;20218;-73
2021/09/05 01:15:25;;;;;;;10.77;6.07;;;;;;;14.73;82.80;96437.69;4977380;28;21150;-73
2021/09/05 01:17:52;;;;;;;9.68;6.03;;;;;;;14.59;83.19;96437.81;4977785;28;20601;-73
2021/09/05 01:20:19;;;;;;;12.27;6.88;;;;;;;14.58;84.67;96434.34;4978304;28;20203;-73
2021/09/05 01:22:46;;;;;;;13.55;7.22;;;;;;;14.39;86.69;96436.91;4977242;28;20199;-73
2021/09/05 01:25:12;;;;;;;12.88;6.55;;;;;;;14.35;84.73;96439.09;4977207;28;20694;-73
2021/09/05 01:27:40;;;;;;;10.05;6.18;;;;;;;14.57;83.60;96440.66;4977516;28;20237;-72
2021/09/05 01:30:08;;;;;;;10.80;6.05;;;;;;;14.50;83.67;96439.81;4977675;28;20690;-73
2021/09/05 01:32:34;;;;;;;11.52;6.25;;;;;;;14.41;84.13;96437.50;4977439;28;20234;-72
2021/09/05 01:35:02;;;;;;;9.25;6.57;;;;;;;14.35;85.51;96438.31;4978200;28;20212;-73
2021/09/05 01:37:28;;;;;;;12.82;6.78;;;;;;;14.42;85.14;96439.97;4977105;28;20317;-73
2021/09/05 01:39:55;;;;;;;8.15;5.43;;;;;;;14.28;84.52;96445.38;4977364;28;20199;-72
2021/09/05 01:42:21;;;;;;;10.40;6.65;;;;;;;14.05;84.52;96450.91;4976300;28;20203;-72
2021/09/05 01:44:49;;;;;;;11.18;6.78;;;;;;;14.27;85.07;96446.41;4977641;28;20209;-73
2021/09/05 01:47:16;;;;;;;11.85;7.25;;;;;;;14.19;85.71;96452.69;4976600;28;20219;-73
2021/09/05 01:49:43;;;;;;;14.02;7.28;;;;;;;14.26;86.02;96455.38;4977402;28;20204;-72
2021/09/05 01:52:09;;;;;;;12.52;7.90;;;;;;;14.19;86.00;96457.16;4977565;28;20555;-73
2021/09/05 01:54:35;;;;;;;11.90;7.18;;;;;;;14.08;85.61;96457.69;4976970;28;20227;-73
2021/09/05 01:57:02;;;;;;;12.00;6.88;;;;;;;14.21;84.99;96455.13;4976244;28;20232;-73
2021/09/05 01:59:29;;;;;;;11.30;6.63;;;;;;;14.23;84.16;96456.59;4977270;28;20207;-73
2021/09/05 02:01:57;;;;;;;9.68;6.35;;;;;;;14.34;84.15;96452.56;4977433;28;20207;-72
2021/09/05 02:04:23;;;;;;;12.27;6.72;;;;;;;14.08;84.95;96455.84;4976918;28;20286;-73
2021/09/05 02:06:50;;;;;;;13.45;7.43;;;;;;;14.04;86.02;96459.06;4976499;28;20230;-72
2021/09/05 02:09:17;;;;;;;10.55;6.95;;;;;;;14.19;84.91;96455.34;4977039;28;20211;-73
2021/09/05 02:11:43;;;;;;;10.77;6.97;;;;;;;14.15;84.49;96455.91;4973250;28;20210;-72
2021/09/05 02:14:10;;;;;;;11.05;7.18;;;;;;;14.22;83.72;96468.19;4977206;28;20234;-72
2021/09/05 02:16:36;;;;;;;12.23;7.25;;;;;;;14.17;84.12;96464.50;4976315;28;20230;-72
2021/09/05 02:19:04;;;;;;;12.98;7.43;;;;;;;14.29;84.56;96468.22;4976622;28;20207;-72
2021/09/05 02:21:31;;;;;;;10.52;7.05;;;;;;;13.96;84.93;96468.97;4976813;28;20214;-73
2021/09/05 02:23:57;;;;;;;10.98;6.75;;;;;;;13.57;85.38;96463.34;4977419;28;20680;-73
2021/09/05 02:26:24;;;;;;;10.90;7.03;;;;;;;13.56;86.33;96469.66;4976142;28;20227;-73
2021/09/05 02:28:50;;;;;;;11.57;6.80;;;;;;;13.80;85.29;96467.44;4976370;28;20261;-72
2021/09/05 02:31:16;;;;;;;9.73;6.43;;;;;;;13.53;86.45;96462.06;4976842;28;20203;-72
2021/09/05 02:33:43;;;;;;;13.63;7.15;;;;;;;13.39;87.46;96461.13;4976188;28;20219;-72
2021/09/05 02:36:11;;;;;;;13.67;7.23;;;;;;;13.56;87.75;96464.34;4975907;28;20220;-72
2021/09/05 02:38:37;;;;;;;12.02;6.50;;;;;;;13.50;87.01;96467.75;4977143;28;20211;-71
2021/09/05 02:41:04;;;;;;;8.97;6.23;;;;;;;13.68;85.57;96474.25;4976802;28;20284;-71
2021/09/05 02:43:30;;;;;;;12.13;6.53;;;;;;;13.79;84.72;96468.44;4976656;28;20231;-71
2021/09/05 02:45:57;;;;;;;10.13;6.50;;;;;;;13.78;84.89;96472.09;4975916;28;20234;-72
2021/09/05 02:48:24;;;;;;;8.10;5.77;;;;;;;13.45;85.89;96470.97;4976814;28;20246;-72
2021/09/05 02:50:50;;;;;;;10.05;6.05;;;;;;;13.48;85.45;96461.84;4976161;28;21055;-72
2021/09/05 02:53:18;;;;;;;8.10;5.65;;;;;;;13.67;84.97;96477.91;4976328;28;20227;-71
2021/09/05 02:55:44;;;;;;;9.55;6.38;;;;;;;13.48;85.66;96473.25;4975552;28;21190;-71
2021/09/05 02:58:11;;;;;;;10.60;6.72;;;;;;;13.14;86.65;96472.25;4976309;28;20199;-71
2021/09/05 03:00:37;;;;;;;9.50;6.47;;;;;;;13.28;86.52;96475.88;4976494;28;20214;-71
2021/09/05 03:03:04;;;;;;;9.35;6.75;;;;;;;13.41;86.33;96474.97;4976563;28;20215;-73
2021/09/05 03:05:30;;;;;;;9.70;6.35;;;;;;;13.53;85.90;96472.66;4975955;28;20211;-70
2021/09/05 03:07:57;;;;;;;11.43;6.17;;;;;;;13.41;85.53;96477.63;4975907;28;20199;-71
2021/09/05 03:10:25;;;;;;;9.45;6.32;;;;;;;13.64;85.15;96478.25;4976307;28;20207;-72
2021/09/05 03:12:51;;;;;;;9.43;6.35;;;;;;;13.56;84.89;96478.41;4976311;28;20213;-72
2021/09/05 03:15:17;;;;;;;11.77;6.50;;;;;;;13.54;85.17;96472.50;4975264;28;20203;-72
2021/09/05 03:17:44;;;;;;;10.43;6.32;;;;;;;13.49;84.45;96466.94;4975550;28;20230;-71
2021/09/05 03:20:11;;;;;;;8.68;6.30;;;;;;;13.45;84.84;96473.63;4977172;28;20215;-72
2021/09/05 03:22:38;;;;;;;9.60;5.77;;;;;;;13.37;84.79;96466.81;4975870;28;20211;-71
2021/09/05 03:25:05;;;;;;;10.32;6.10;;;;;;;13.54;84.04;96471.66;4975912;28;20191;-71
2021/09/05 03:27:33;;;;;;;10.38;6.13;;;;;;;13.37;84.46;96474.75;4975839;28;20223;-71
2021/09/05 03:29:59;;;;;;;10.03;6.33;;;;;;;13.22;84.46;96472.13;4976804;28;20203;-71
2021/09/05 03:32:26;;;;;;;11.17;6.47;;;;;;;13.28;83.34;96470.59;4975456;28;20207;-71
2021/09/05 03:34:52;;;;;;;8.90;5.93;;;;;;;13.27;82.83;96482.19;4976092;28;20239;-72
2021/09/05 03:37:19;;;;;;;10.57;6.57;;;;;;;13.05;84.60;96491.09;4975627;28;20223;-71
2021/09/05 03:39:45;;;;;;;16.47;8.40;;;;;;;12.83;87.47;96484.88;4975944;28;20203;-71
2021/09/05 03:42:12;;;;;;;15.87;8.77;;;;;;;12.93;88.21;96484.63;4976095;28;20204;-71
2021/09/05 03:44:39;;;;;;;11.67;7.40;;;;;;;13.24;86.29;96483.38;4979575;28;20229;-72
2021/09/05 03:47:06;;;;;;;11.93;6.97;;;;;;;12.91;86.05;96481.34;4978121;28;20227;-72
2021/09/05 03:49:32;;;;;;;8.93;6.00;;;;;;;12.98;85.03;96485.72;4979360;28;20207;-72
2021/09/05 03:51:59;;;;;;;12.03;7.10;;;;;;;12.93;85.50;96490.75;4978744;28;20218;-72
2021/09/05 03:54:25;;;;;;;14.13;7.30;;;;;;;13.07;85.21;96489.06;4979971;28;20227;-72
2021/09/05 03:56:52;;;;;;;10.57;7.10;;;;;;;13.18;85.41;96496.53;4977086;28;20227;-71
2021/09/05 03:59:18;;;;;;;10.93;7.03;;;;;;;13.39;84.42;96492.09;4975425;28;20208;-73
2021/09/05 04:01:47;;;;;;;11.43;7.20;;;;;;;13.58;83.60;96492.28;4975693;28;20199;-73
2021/09/05 04:04:13;;;;;;;13.67;7.73;;;;;;;13.38;84.72;96488.59;4974836;28;20199;-72
2021/09/05 04:06:40;;;;;;;13.07;8.07;;;;;;;13.35;84.91;96500.59;4973655;28;20222;-72
2021/09/05 04:09:17;;;;;;;12.80;7.30;;;;;;;13.40;83.66;96488.41;4974908;28;20199;-73
2021/09/05 04:11:44;;;;;;;13.20;7.47;;;;;;;13.28;83.54;96481.19;4976249;28;20199;-72
2021/09/05 04:14:10;;;;;;;13.23;7.50;;;;;;;13.35;83.36;96485.50;4975213;28;20230;-71
2021/09/05 04:16:37;;;;;;;11.90;7.53;;;;;;;13.21;83.58;96497.00;4974646;28;20231;-71
2021/09/05 04:19:04;;;;;;;12.83;7.13;;;;;;;13.19;84.10;96491.03;4975176;28;20207;-71
2021/09/05 04:21:31;;;;;;;15.07;9.00;;;;;;;13.11;87.08;96495.63;4975506;28;20203;-72
2021/09/05 04:23:57;;;;;;;13.00;8.30;;;;;;;13.07;87.44;96497.84;4974783;28;20307;-73
2021/09/05 04:26:24;;;;;;;10.47;6.63;;;;;;;13.24;84.64;96501.06;4974640;28;21336;-72
2021/09/05 04:28:50;;;;;;;12.07;6.97;;;;;;;13.07;84.29;96502.28;4975197;28;20289;-72
2021/09/05 04:31:16;;;;;;;12.37;7.30;;;;;;;12.93;85.45;96503.13;4975265;28;20203;-72
2021/09/05 04:33:43;;;;;;;12.27;8.00;;;;;;;13.02;85.38;96510.81;4974808;28;20262;-71
2021/09/05 04:36:11;;;;;;;13.47;7.17;;;;;;;13.18;84.95;96512.41;4974388;28;21290;-71
2021/09/05 04:38:37;;;;;;;13.30;7.33;;;;;;;13.09;83.70;96506.41;4974666;28;20207;-71
2021/09/05 04:41:03;;;;;;;10.13;6.80;;;;;;;13.08;83.62;96509.22;4975076;28;20211;-71
2021/09/05 04:43:30;;;;;;;16.30;8.37;;;;;;;13.08;84.86;96510.03;4974808;28;20207;-71
2021/09/05 04:45:57;;;;;;;12.33;7.60;;;;;;;12.83;84.72;96519.28;4975082;28;20236;-71
2021/09/05 04:48:23;;;;;;;12.80;8.07;;;;;;;13.13;83.68;96512.94;4974948;28;20330;-72
2021/09/05 04:50:49;;;;;;;11.43;7.70;;;;;;;13.13;83.26;96523.53;4974384;28;20230;-72
2021/09/05 04:53:17;;;;;;;18.33;7.73;;;;;;;13.21;83.84;96522.59;4975003;28;20269;-72
2021/09/05 04:55:44;;;;;;;12.87;7.77;;;;;;;13.03;83.98;96532.78;4974580;28;20212;-72
2021/09/05 04:58:10;;;;;;;13.43;8.20;;;;;;;13.09;83.86;96526.75;4974619;28;20204;-72
2021/09/05 05:00:37;;;;;;;14.73;8.43;;;;;;;13.18;84.28;96525.63;4975034;28;20207;-71
2021/09/05 05:03:03;;;;;;;12.77;7.60;;;;;;;13.11;83.56;96530.84;4974907;28;20211;-71
2021/09/05 05:05:29;;;;;;;11.77;7.47;;;;;;;12.93;83.53;96532.22;4973667;28;20207;-70
2021/09/05 05:07:56;;;;;;;16.03;7.57;;;;;;;13.00;83.65;96544.53;4974774;28;20223;-71
2021/09/05 05:10:24;;;;;;;10.60;6.87;;;;;;;13.22;83.70;96548.06;4974483;28;20691;-72
2021/09/05 05:12:51;;;;;;;10.90;7.20;;;;;;;13.08;83.13;96543.63;4974286;28;21185;-71
2021/09/05 05:15:17;;;;;;;15.67;7.47;;;;;;;13.22;83.26;96556.00;4974378;28;20638;-72
2021/09/05 05:17:43;;;;;;;18.33;8.38;;;;;;;13.24;84.02;96551.34;4977952;28;20778;-72
2021/09/05 05:20:12;;;;;;;15.20;8.30;;;;;;;13.36;84.64;96555.97;4977451;28;20203;-72
2021/09/05 05:22:38;;;;;;;13.55;7.43;;;;;;;13.24;84.54;96556.63;4978578;28;20292;-72
2021/09/05 05:25:06;;;;;;;13.33;7.17;;;;;;;13.01;85.19;96564.72;4978094;28;20196;-72
2021/09/05 05:27:34;;;;;;;12.07;6.87;;;;;;;13.09;85.94;96561.94;4977325;28;20227;-72
2021/09/05 05:30:00;;;;;;;11.00;7.45;;;;;;;12.97;87.00;96565.25;4977207;28;20204;-72
2021/09/05 05:32:27;;;;;;;13.67;8.37;;;;;;;13.02;87.26;96570.81;4977994;28;20203;-72
2021/09/05 05:34:53;;;;;;;14.73;9.07;;;;;;;13.09;88.24;96563.78;4977151;28;20227;-72
2021/09/05 05:37:20;;;;;;;18.17;9.57;;;;;;;13.42;88.03;96571.13;4976800;28;20227;-72
2021/09/05 05:39:46;;;;;;;15.07;8.80;;;;;;;13.43;87.52;96560.34;4977564;28;20235;-72
2021/09/05 05:42:12;;;;;;;13.52;8.38;;;;;;;13.55;87.36;96563.31;4977393;28;20203;-72
2021/09/05 05:44:41;;;;;;;12.18;8.15;;;;;;;13.60;87.86;96564.38;4977727;28;20203;-72
2021/09/05 05:47:08;;;;;;;13.00;8.00;;;;;;;13.41;89.32;96574.78;4976706;28;20770;-72
2021/09/05 05:49:35;;;;;;;14.27;8.90;;;;;;;13.53;88.95;96574.09;4977628;28;20211;-72
2021/09/05 05:52:02;;;;;;;14.93;9.57;;;;;;;13.74;89.19;96575.97;4976645;28;21051;-71
2021/09/05 05:54:28;;;;;;;17.92;9.70;;;;;;;13.75;90.00;96580.25;4977859;28;20322;-71
2021/09/05 05:56:55;;;;;;;17.38;10.10;;;;;;;13.92;89.27;96581.66;4977305;28;20231;-71
2021/09/05 05:59:21;;;;;;;14.05;9.38;;;;;;;13.95;89.57;96579.44;4977666;28;20397;-71
2021/09/05 06:01:49;;;;;;;14.93;8.75;;;;;;;14.22;89.33;96581.34;4976788;28;20207;-71
2021/09/05 06:04:15;;;;;;;15.18;9.23;;;;;;;14.12;88.67;96575.56;4977654;28;20196;-71
2021/09/05 06:06:42;;;;;;;16.52;9.07;;;;;;;14.29;89.02;96579.56;4976033;28;20275;-71
2021/09/05 06:09:08;;;;;;;13.82;8.73;;;;;;;14.25;89.96;96576.47;4977584;28;20280;-71
2021/09/05 06:11:35;;;;;;;12.13;8.35;;;;;;;14.40;89.44;96579.06;4976561;28;20250;-71
2021/09/05 06:14:01;;;;;;;16.17;8.95;;;;;;;14.35;90.79;96586.78;4977241;28;20219;-71
2021/09/05 06:16:28;;;;;;;15.85;8.95;;;;;;;14.48;90.44;96581.56;4975904;28;20228;-71
2021/09/05 06:18:56;;;;;;;14.65;9.00;;;;;;;14.68;90.57;96588.66;4976833;28;20211;-71
2021/09/05 06:21:23;;;;;;;14.55;8.90;;;;;;;14.68;90.86;96589.47;4976499;28;21250;-71
2021/09/05 06:23:49;;;;;;;15.68;9.60;;;;;;;14.69;90.76;96585.81;4976923;28;20735;-71
2021/09/05 06:26:16;;;;;;;16.67;9.73;;;;;;;14.91;90.34;96592.69;4975148;28;20219;-71
2021/09/05 06:28:42;;;;;;;16.55;10.00;;;;;;;14.93;89.91;96593.31;4975592;28;20708;-71
2021/09/05 06:31:09;;;;;;;18.33;10.45;;;;;;;15.08;90.11;96596.66;4976339;28;20203;-71
2021/09/05 06:33:35;;;;;;;19.13;10.90;;;;;;;15.16;90.48;96593.88;4976857;28;20256;-71
2021/09/05 06:36:03;;;;;;;16.60;10.68;;;;;;;15.44;91.10;96599.94;4975658;28;20227;-71
2021/09/05 06:38:30;;;;;;;26.35;12.98;;;;;;;15.21;92.00;96596.78;4976024;28;20210;-71
2021/09/05 06:40:56;;;;;;;21.52;13.07;;;;;;;15.06;92.43;96598.69;4976836;28;20207;-71
2021/09/05 06:43:23;;;;;;;23.40;12.38;;;;;;;15.10;91.84;96605.25;4977055;28;20618;-71
2021/09/05 06:45:49;;;;;;;23.25;12.27;;;;;;;15.11;92.15;96601.59;4973081;28;20610;-70
2021/09/05 06:48:16;;;;;;;21.40;12.50;;;;;;;15.27;91.15;96603.94;4975981;28;20207;-70
2021/09/05 06:50:42;;;;;;;19.85;12.05;;;;;;;15.44;91.44;96603.41;4977262;28;20207;-71
2021/09/05 06:53:10;;;;;;;20.50;12.07;;;;;;;15.79;89.51;96599.66;4976004;28;20204;-70
2021/09/05 06:55:36;;;;;;;20.80;12.68;;;;;;;15.65;89.81;96599.81;4975692;28;20223;-70
2021/09/05 06:58:03;;;;;;;22.20;12.40;;;;;;;15.66;89.62;96598.81;4976572;28;20207;-71
2021/09/05 07:00:29;;;;;;;20.25;11.75;;;;;;;15.90;89.38;96599.91;4976118;28;20207;-70
2021/09/05 07:02:56;;;;;;;24.13;13.65;;;;;;;16.05;89.48;96591.75;4975836;28;20212;-70
2021/09/05 07:05:22;;;;;;;19.85;12.95;;;;;;;16.19;88.59;96601.38;4977080;28;20203;-71
2021/09/05 07:07:48;;;;;;;25.98;14.13;;;;;;;16.27;89.07;96595.91;4975539;28;20223;-70
2021/09/05 07:10:16;;;;;;;22.08;13.70;;;;;;;16.47;88.83;96592.25;4975937;28;20700;-70
2021/09/05 07:12:43;;;;;;;23.00;13.57;;;;;;;16.40;88.37;96596.72;4976429;28;20249;-70
2021/09/05 07:15:10;;;;;;;24.70;14.00;;;;;;;16.58;89.41;96591.63;4975925;28;20223;-70
2021/09/05 07:17:37;;;;;;;30.02;13.77;;;;;;;16.73;88.12;96602.88;4975110;28;20231;-70
2021/09/05 07:20:04;;;;;;;28.67;15.95;;;;;;;16.93;88.66;96595.69;4976091;28;20207;-70
2021/09/05 07:22:31;;;;;;;22.52;13.55;;;;;;;17.09;86.84;96604.03;4975814;28;20207;-70
2021/09/05 07:24:57;;;;;;;26.90;15.25;;;;;;;17.07;88.48;96611.44;4975308;28;20253;-70
2021/09/05 07:27:26;;;;;;;28.10;15.02;;;;;;;17.44;87.36;96598.25;4974382;28;20259;-70
2021/09/05 07:29:52;;;;;;;20.35;12.65;;;;;;;17.49;85.94;96602.94;4975715;28;20199;-70
2021/09/05 07:32:19;;;;;;;25.58;15.73;;;;;;;17.78;86.71;96606.72;4975721;28;20210;-70
2021/09/05 07:34:46;;;;;;;23.55;14.25;;;;;;;17.78;87.02;96600.56;4975767;28;20231;-71
2021/09/05 07:37:12;;;;;;;28.15;15.48;;;;;;;17.98;86.25;96606.63;4974907;28;20229;-71
2021/09/05 07:39:39;;;;;;;29.25;17.33;;;;;;;18.06;86.56;96604.53;4973980;28;20207;-71
2021/09/05 07:42:05;;;;;;;27.77;16.98;;;;;;;18.09;87.18;96605.97;4975017;28;20230;-71
2021/09/05 07:44:33;;;;;;;26.67;16.35;;;;;;;18.12;87.73;96602.84;4975064;28;20722;-70
2021/09/05 07:46:59;;;;;;;28.88;17.88;;;;;;;18.24;86.79;96611.81;4971986;28;20234;-70
2021/09/05 07:49:27;;;;;;;24.92;15.95;;;;;;;18.39;85.85;96600.66;4975117;28;21092;-70
2021/09/05 07:51:54;;;;;;;19.33;12.88;;;;;;;18.73;83.35;96605.50;4975416;28;20686;-70
2021/09/05 07:54:20;;;;;;;27.23;15.95;;;;;;;18.71;84.89;96615.59;4974798;28;20215;-69
2021/09/05 07:56:47;;;;;;;27.45;16.67;;;;;;;18.75;84.70;96608.78;4974136;28;20231;-70
2021/09/05 07:59:13;;;;;;;27.50;16.35;;;;;;;18.94;84.20;96610.47;4975182;28;20200;-70
2021/09/05 08:01:41;;;;;;;27.05;16.60;;;;;;;19.13;84.26;96609.47;4976238;28;20203;-70
2021/09/05 08:04:07;;;;;;;26.00;15.90;;;;;;;19.03;84.66;96609.16;4975094;28;20679;-70
2021/09/05 08:06:34;;;;;;;28.55;15.68;;;;;;;19.13;84.63;96614.81;4973978;28;20227;-70
2021/09/05 08:09:00;;;;;;;25.02;15.82;;;;;;;19.15;85.71;96613.56;4974879;28;20205;-69
2021/09/05 08:11:27;;;;;;;23.75;14.85;;;;;;;19.45;84.15;96619.84;4975248;28;20211;-69
2021/09/05 08:13:54;;;;;;;48.88;16.58;;;;;;;19.42;84.36;96620.28;4974735;28;20229;-69
2021/09/05 08:16:20;;;;;;;28.30;15.70;;;;;;;19.32;83.15;96621.81;4974516;28;20239;-70
2021/09/05 08:18:48;;;;;;;26.83;15.70;;;;;;;19.66;82.99;96617.50;4975513;28;20245;-69
2021/09/05 08:21:15;;;;;;;26.20;14.65;;;;;;;19.67;83.70;96623.69;4973238;28;20212;-69
2021/09/05 08:23:42;;;;;;;21.98;14.20;;;;;;;19.73;82.40;96623.63;4973241;28;20203;-69
2021/09/05 08:26:10;;;;;;;26.33;15.35;;;;;;;19.82;82.66;96627.63;4974067;28;20225;-69
2021/09/05 08:28:37;;;;;;;23.17;14.73;;;;;;;20.18;81.35;96624.91;4975045;28;20248;-70
2021/09/05 08:31:04;;;;;;;26.38;15.63;;;;;;;20.06;81.58;96629.41;4973765;28;20583;-70
2021/09/05 08:33:30;;;;;;;24.80;15.43;;;;;;;20.24;83.10;96632.06;4974773;28;20217;-70
2021/09/05 08:35:58;;;;;;;27.02;16.00;;;;;;;20.58;82.94;96624.13;4973835;28;20250;-70
2021/09/05 08:38:25;;;;;;;26.67;15.60;;;;;;;20.51;82.67;96628.75;4974390;28;20207;-70
2021/09/05 08:40:52;;;;;;;22.38;13.90;;;;;;;20.89;80.96;96630.03;4974236;28;20207;-70
2021/09/05 08:43:20;;;;;;;22.65;14.77;;;;;;;21.12;80.55;96627.38;4974069;28;20591;-70
2021/09/05 08:45:48;;;;;;;24.50;14.70;;;;;;;20.85;78.37;96631.53;4973301;28;20281;-70
2021/09/05 08:48:16;;;;;;;22.48;13.95;;;;;;;21.07;78.18;96629.13;4974671;28;20210;-70
2021/09/05 08:50:43;;;;;;;20.35;12.63;;;;;;;21.32;77.90;96633.22;4974886;28;20207;-70
2021/09/05 08:53:11;;;;;;;19.00;12.40;;;;;;;21.53;76.99;96624.59;4979306;28;20207;-70
2021/09/05 08:55:38;;;;;;;21.05;13.05;;;;;;;21.45;77.12;96630.28;4977276;28;20227;-70
2021/09/05 08:58:05;;;;;;;20.23;11.60;;;;;;;21.73;77.06;96633.09;4977503;28;20256;-70
2021/09/05 09:00:33;;;;;;;23.15;10.23;;;;;;;22.13;75.18;96624.81;4974819;28;20207;-70
2021/09/05 09:03:00;;;;;;;20.80;11.50;;;;;;;21.79;75.40;96624.06;4976132;28;20203;-70
2021/09/05 09:05:35;;;;;;;20.00;11.10;;;;;;;22.25;70.98;96628.25;4977210;28;20214;-70
2021/09/05 09:08:04;;;;;;;16.10;9.00;;;;;;;22.27;69.82;96631.53;4977347;28;20204;-70
2021/09/05 09:10:32;;;;;;;14.88;8.77;;;;;;;22.45;69.10;96625.97;4974265;28;20200;-70
2021/09/05 09:12:59;;;;;;;14.65;8.77;;;;;;;22.45;69.51;96620.59;4977536;28;20211;-71
2021/09/05 09:15:27;;;;;;;13.30;9.02;;;;;;;22.56;68.47;96635.03;4976840;28;20261;-70
2021/09/05 09:17:57;;;;;;;13.75;8.48;;;;;;;22.72;68.10;96633.19;4976637;28;20223;-70
2021/09/05 09:20:38;;;;;;;13.48;8.40;;;;;;;23.07;66.91;96635.69;4977875;28;20266;-71
2021/09/05 09:23:14;;;;;;;18.27;9.10;;;;;;;23.13;64.62;96634.69;4977179;28;20215;-71
2021/09/05 09:25:56;;;;;;;13.73;9.43;;;;;;;23.34;66.39;96635.59;4976406;28;20202;-70
2021/09/05 09:28:25;;;;;;;13.70;8.55;;;;;;;23.36;67.78;96629.97;4976669;28;20709;-70
2021/09/05 09:30:52;;;;;;;14.35;8.68;;;;;;;23.34;66.25;96632.91;4977728;28;20315;-70
2021/09/05 09:33:23;;;;;;;11.98;7.68;;;;;;;23.71;66.53;96633.19;4976820;28;21365;-70
2021/09/05 09:35:51;;;;;;;15.43;9.35;;;;;;;23.16;62.91;96634.22;4976618;28;20227;-71
2021/09/05 09:38:18;;;;;;;14.18;8.32;;;;;;;23.52;66.20;96623.72;4977976;28;20207;-71
2021/09/05 09:40:48;;;;;;;16.83;8.68;;;;;;;23.79;63.38;96635.44;4977553;28;20239;-71
2021/09/05 09:43:19;;;;;;;13.00;7.75;;;;;;;24.14;60.41;96628.63;4977252;28;20257;-71
2021/09/05 09:45:47;;;;;;;11.90;7.47;;;;;;;23.94;59.66;96631.06;4976671;28;20307;-70
2021/09/05 09:48:22;;;;;;;11.57;7.40;;;;;;;24.27;59.77;96630.94;4977626;28;20234;-71
2021/09/05 09:50:48;;;;;;;13.57;7.90;;;;;;;23.98;62.56;96629.50;4976488;28;20209;-70
2021/09/05 09:53:15;;;;;;;9.77;5.78;;;;;;;24.16;58.73;96626.47;4977504;28;20213;-71
2021/09/05 09:55:42;;;;;;;12.75;6.43;;;;;;;24.21;58.19;96634.63;4975817;28;20223;-71
2021/09/05 09:58:09;;;;;;;12.13;6.72;;;;;;;24.55;58.79;96619.94;4976701;28;20257;-71
2021/09/05 10:00:37;;;;;;;10.48;6.57;;;;;;;24.57;58.97;96622.13;4976766;28;20219;-70
2021/09/05 10:03:04;;;;;;;13.00;7.43;;;;;;;24.28;58.18;96622.59;4976373;28;20226;-71
2021/09/05 10:05:31;;;;;;;12.77;7.25;;;;;;;24.30;60.33;96628.56;4975549;28;20203;-70
2021/09/05 10:07:58;;;;;;;13.90;7.63;;;;;;;24.29;58.87;96626.13;4976322;28;20363;-71
2021/09/05 10:10:25;;;;;;;14.48;7.25;;;;;;;24.63;59.24;96618.41;4973863;28;20269;-70
2021/09/05 10:12:56;;;;;;;9.98;6.68;;;;;;;24.99;59.27;96623.06;4976733;28;20219;-70
2021/09/05 10:15:25;;;;;;;15.10;6.65;;;;;;;25.09;57.82;96622.34;4976071;28;20231;-71
2021/09/05 10:17:52;;;;;;;13.25;6.50;;;;;;;24.90;58.54;96621.09;4976333;28;20223;-71
2021/09/05 10:20:19;;;;;;;11.38;6.22;;;;;;;25.11;56.98;96621.03;4977319;28;20204;-71
2021/09/05 10:22:46;;;;;;;9.45;6.10;;;;;;;25.05;56.82;96614.00;4976502;28;20284;-71
2021/09/05 10:25:14;;;;;;;11.60;6.57;;;;;;;25.18;59.45;96610.84;4975308;28;20218;-70
2021/09/05 10:27:48;;;;;;;11.13;6.97;;;;;;;25.65;54.98;96617.06;4976046;28;20223;-71
2021/09/05 10:30:17;;;;;;;11.70;6.05;;;;;;;25.64;54.77;96613.56;4976387;28;20207;-71
2021/09/05 10:32:50;;;;;;;12.63;6.45;;;;;;;25.90;54.40;96610.78;4976558;28;20218;-71
2021/09/05 10:35:39;;;;;;;11.45;6.07;;;;;;;26.04;55.63;96606.53;4975453;28;20299;-71
2021/09/05 10:38:23;;;;;;;20.83;8.30;;;;;;;25.95;55.25;96602.72;4970564;28;21055;-71
2021/09/05 10:40:55;;;;;;;16.83;7.57;;;;;;;25.98;55.93;96604.88;4976039;28;20257;-71
2021/09/05 10:43:23;;;;;;;146.05;45.80;;;;;;;26.30;54.52;96599.28;4976568;28;20318;-71
2021/09/05 10:45:51;;;;;;;127.40;33.28;;;;;;;26.42;53.16;96603.44;4974585;28;20220;-71
2021/09/05 10:48:33;;;;;;;24.65;12.18;;;;;;;26.60;50.49;96606.47;4975971;28;20207;-71
2021/09/05 10:51:07;;;;;;;9.82;5.63;;;;;;;26.99;51.77;96602.19;4975693;28;20306;-71
2021/09/05 10:53:37;;;;;;;11.45;5.78;;;;;;;26.91;52.90;96596.47;4977615;28;20318;-71
2021/09/05 10:56:09;;;;;;;8.45;4.95;;;;;;;26.74;50.82;96601.31;4974546;28;20739;-70
2021/09/05 10:58:37;;;;;;;6.88;4.55;;;;;;;26.77;50.29;96598.06;4975960;28;20224;-71
2021/09/05 11:01:04;;;;;;;7.30;5.10;;;;;;;26.36;51.25;96598.28;4976177;28;20207;-71
2021/09/05 11:03:32;;;;;;;8.25;5.40;;;;;;;26.09;52.17;96597.63;4976256;28;20210;-72
2021/09/05 11:06:32;;;;;;;8.90;5.25;;;;;;;26.33;52.29;96596.88;4974869;28;20231;-71
2021/09/05 11:09:43;;;;;;;8.45;5.50;;;;;;;25.82;53.40;96600.47;4976410;28;20203;-71
2021/09/05 11:12:13;;;;;;;8.90;5.18;;;;;;;25.84;53.00;96584.81;4975175;28;20346;-70
2021/09/05 11:14:56;;;;;;;7.93;4.75;;;;;;;25.94;50.25;96597.53;4975332;28;21529;-71
2021/09/05 11:17:24;;;;;;;7.07;4.75;;;;;;;25.97;50.07;96591.63;4973390;28;20257;-70
2021/09/05 11:19:54;;;;;;;6.93;4.40;;;;;;;26.27;50.28;96589.84;4975170;28;20199;-70
2021/09/05 11:22:23;;;;;;;8.90;5.10;;;;;;;26.34;49.29;96595.03;4975405;28;20207;-71
2021/09/05 11:25:15;;;;;;;6.93;4.85;;;;;;;26.32;48.36;96597.94;4975590;28;21062;-71
2021/09/05 11:27:46;;;;;;;8.68;4.78;;;;;;;26.43;48.02;96596.94;4974860;28;20230;-71